createdAt,value
2022-10-14T00:00:05.386Z,11.91
2022-10-14T00:03:03.181Z,11.84
2022-10-14T00:05:34.789Z,11.79
2022-10-14T00:08:06.423Z,11.74
2022-10-14T00:10:41.149Z,11.78
2022-10-14T00:13:12.841Z,11.76
2022-10-14T00:15:44.500Z,11.80
2022-10-14T00:18:16.186Z,11.86
2022-10-14T00:20:57.429Z,11.89
2022-10-14T00:23:29.447Z,11.95
2022-10-14T00:26:01.096Z,11.96
2022-10-14T00:28:35.436Z,11.84
2022-10-14T00:31:07.581Z,11.80
2022-10-14T00:33:40.524Z,11.77
2022-10-14T00:36:14.928Z,11.70
2022-10-14T00:38:47.137Z,11.66
2022-10-14T00:41:22.780Z,11.68
2022-10-14T00:43:58.571Z,11.61
2022-10-14T00:46:32.060Z,11.58
2022-10-14T00:49:10.573Z,11.48
2022-10-14T00:51:45.998Z,11.46
2022-10-14T00:54:22.165Z,11.49
2022-10-14T00:56:55.058Z,11.58
2022-10-14T00:59:27.412Z,11.61
2022-10-14T01:01:59.104Z,11.56
2022-10-14T01:04:30.974Z,11.48
2022-10-14T01:07:09.853Z,11.42
2022-10-14T01:09:48.823Z,11.35
2022-10-14T01:12:29.816Z,11.29
2022-10-14T01:15:09.945Z,11.28
2022-10-14T01:17:53.853Z,11.33
2022-10-14T01:20:49.358Z,11.36
2022-10-14T01:24:12.012Z,11.40
2022-10-14T01:27:11.745Z,11.43
2022-10-14T01:30:09.136Z,11.41
2022-10-14T01:32:59.306Z,11.34
2022-10-14T01:35:40.875Z,11.35
2022-10-14T01:38:18.606Z,11.31
2022-10-14T01:40:56.429Z,11.33
2022-10-14T01:43:32.629Z,11.33
2022-10-14T01:46:07.778Z,11.41
2022-10-14T01:48:43.679Z,11.44
2022-10-14T01:51:19.797Z,11.46
2022-10-14T01:53:55.937Z,11.49
2022-10-14T01:56:34.936Z,11.34
2022-10-14T01:59:11.649Z,11.46
2022-10-14T02:01:43.465Z,11.49
2022-10-14T02:04:19.892Z,11.50
2022-10-14T02:06:59.166Z,11.55
2022-10-14T02:09:42.684Z,11.61
2022-10-14T02:12:27.442Z,11.62
2022-10-14T02:15:09.264Z,11.59
2022-10-14T02:17:50.642Z,11.62
2022-10-14T02:20:27.345Z,11.64
2022-10-14T02:23:05.608Z,11.66
2022-10-14T02:25:41.309Z,11.63
2022-10-14T02:28:18.179Z,11.58
2022-10-14T02:30:56.605Z,11.57
2022-10-14T02:33:34.284Z,11.60
2022-10-14T02:36:08.709Z,11.60
2022-10-14T02:38:41.909Z,11.55
2022-10-14T02:41:19.253Z,11.53
2022-10-14T02:43:50.913Z,11.50
2022-10-14T02:46:22.726Z,11.47
2022-10-14T02:48:54.390Z,11.46
2022-10-14T02:51:26.109Z,11.38
2022-10-14T02:53:58.395Z,11.47
2022-10-14T02:56:31.153Z,11.49
2022-10-14T02:59:04.434Z,11.52
2022-10-14T03:01:37.895Z,11.51
2022-10-14T03:04:10.291Z,11.44
2022-10-14T03:06:42.186Z,11.34
2022-10-14T03:09:14.638Z,11.27
2022-10-14T03:11:46.709Z,11.23
2022-10-14T03:14:20.798Z,11.28
2022-10-14T03:16:52.944Z,11.26
2022-10-14T03:19:27.159Z,11.21
2022-10-14T03:22:00.326Z,11.28
2022-10-14T03:24:32.042Z,11.31
2022-10-14T03:27:26.408Z,11.32
2022-10-14T03:30:01.575Z,11.31
2022-10-14T03:32:33.220Z,11.27
2022-10-14T03:35:24.160Z,11.24
2022-10-14T03:37:59.810Z,11.27
2022-10-14T03:40:34.453Z,11.27
2022-10-14T03:43:06.478Z,11.26
2022-10-14T03:45:46.088Z,11.22
2022-10-14T03:48:18.344Z,11.07
2022-10-14T03:50:51.094Z,11.06
2022-10-14T03:53:24.132Z,11.07
2022-10-14T03:55:56.097Z,11.07
2022-10-14T03:58:27.698Z,11.12
2022-10-14T04:01:04.183Z,11.02
2022-10-14T04:03:41.255Z,11.01
2022-10-14T04:06:13.363Z,10.99
2022-10-14T04:08:45.259Z,11.00
2022-10-14T04:11:26.081Z,10.96
2022-10-14T04:14:01.684Z,10.99
2022-10-14T04:16:34.051Z,11.01
2022-10-14T04:19:14.560Z,11.01
2022-10-14T04:21:46.644Z,11.01
2022-10-14T04:24:20.900Z,11.01
2022-10-14T04:26:57.273Z,10.97
2022-10-14T04:29:39.730Z,11.01
2022-10-14T04:32:17.559Z,11.00
2022-10-14T04:34:49.598Z,11.05
2022-10-14T04:37:23.394Z,11.03
2022-10-14T04:40:05.357Z,11.10
2022-10-14T04:42:37.482Z,11.14
2022-10-14T04:45:11.753Z,11.14
2022-10-14T04:47:48.955Z,11.20
2022-10-14T04:50:22.312Z,11.21
2022-10-14T04:53:14.015Z,11.22
2022-10-14T04:55:58.810Z,11.20
2022-10-14T04:58:30.990Z,11.20
2022-10-14T05:01:02.565Z,11.21
2022-10-14T05:03:40.635Z,11.19
2022-10-14T05:06:12.905Z,11.11
2022-10-14T05:08:47.344Z,11.01
2022-10-14T05:11:19.093Z,10.93
2022-10-14T05:13:57.498Z,10.97
2022-10-14T05:16:29.818Z,11.01
2022-10-14T05:19:01.440Z,11.02
2022-10-14T05:21:33.404Z,11.03
2022-10-14T05:24:18.452Z,11.02
2022-10-14T05:26:51.476Z,11.06
2022-10-14T05:29:23.097Z,11.02
2022-10-14T05:31:55.514Z,10.96
2022-10-14T05:34:47.539Z,10.81
2022-10-14T05:37:26.558Z,10.90
2022-10-14T05:39:59.415Z,10.96
2022-10-14T05:42:31.385Z,11.03
2022-10-14T05:45:03.610Z,11.03
2022-10-14T05:47:36.107Z,11.01
2022-10-14T05:50:16.368Z,11.00
2022-10-14T05:52:49.083Z,10.95
2022-10-14T05:55:24.948Z,10.93
2022-10-14T05:57:59.598Z,10.94
2022-10-14T06:00:35.468Z,10.87
2022-10-14T06:03:11.324Z,10.87
2022-10-14T06:05:43.195Z,10.75
2022-10-14T06:08:15.926Z,10.55
2022-10-14T06:10:49.097Z,10.54
2022-10-14T06:13:20.797Z,10.65
2022-10-14T06:15:52.461Z,10.79
2022-10-14T06:18:24.042Z,10.91
2022-10-14T06:20:56.067Z,11.01
2022-10-14T06:23:28.916Z,11.14
2022-10-14T06:26:04.018Z,11.20
2022-10-14T06:28:35.683Z,11.25
2022-10-14T06:31:07.578Z,11.33
2022-10-14T06:33:39.500Z,11.38
2022-10-14T06:36:12.940Z,11.45
2022-10-14T06:38:44.791Z,11.44
2022-10-14T06:41:16.513Z,11.57
2022-10-14T06:43:48.082Z,11.62
2022-10-14T06:46:20.133Z,11.62
2022-10-14T06:48:52.456Z,11.65
2022-10-14T06:51:24.116Z,11.71
2022-10-14T06:53:55.681Z,11.78
2022-10-14T06:56:27.854Z,11.85
2022-10-14T06:58:59.475Z,11.92
2022-10-14T07:01:31.555Z,11.99
2022-10-14T07:04:04.592Z,12.07
2022-10-14T07:06:37.052Z,12.14
2022-10-14T07:09:08.619Z,12.15
2022-10-14T07:11:40.185Z,12.15
2022-10-14T07:14:11.801Z,12.16
2022-10-14T07:16:45.286Z,12.16
2022-10-14T07:19:17.240Z,12.23
2022-10-14T07:21:49.335Z,12.24
2022-10-14T07:24:20.916Z,12.22
2022-10-14T07:26:53.254Z,12.24
2022-10-14T07:29:25.514Z,12.28
2022-10-14T07:31:57.588Z,12.31
2022-10-14T07:34:29.301Z,12.34
2022-10-14T07:37:00.944Z,12.27
2022-10-14T07:39:33.972Z,12.24
2022-10-14T07:42:04.497Z,12.35
2022-10-14T07:44:37.153Z,12.37
2022-10-14T07:47:08.864Z,12.39
2022-10-14T07:49:40.471Z,12.30
2022-10-14T07:52:12.138Z,12.32
2022-10-14T07:54:43.980Z,12.35
2022-10-14T07:57:16.655Z,12.43
2022-10-14T07:59:48.252Z,12.45
2022-10-14T08:02:20.251Z,12.53
2022-10-14T08:05:04.123Z,12.59
2022-10-14T08:07:44.044Z,12.74
2022-10-14T08:10:16.347Z,12.82
2022-10-14T08:12:48.055Z,12.85
2022-10-14T08:15:19.958Z,12.95
2022-10-14T08:17:52.446Z,13.00
2022-10-14T08:20:24.172Z,13.05
2022-10-14T08:22:56.346Z,13.01
2022-10-14T08:25:28.471Z,13.06
2022-10-14T08:28:00.069Z,13.12
2022-10-14T08:30:31.822Z,13.06
2022-10-14T08:33:03.438Z,13.06
2022-10-14T08:35:35.071Z,13.06
2022-10-14T08:38:06.704Z,13.16
2022-10-14T08:40:57.976Z,13.26
2022-10-14T08:43:34.939Z,13.40
2022-10-14T08:46:12.298Z,13.43
2022-10-14T08:48:45.239Z,13.56
2022-10-14T08:51:20.394Z,13.65
2022-10-14T08:53:56.859Z,13.75
2022-10-14T08:56:28.970Z,13.82
2022-10-14T08:59:07.417Z,13.85
2022-10-14T09:01:49.190Z,13.95
2022-10-14T09:04:21.427Z,14.02
2022-10-14T09:06:55.419Z,14.17
2022-10-14T09:09:31.769Z,14.27
2022-10-14T09:12:07.487Z,14.36
2022-10-14T09:14:44.178Z,14.40
2022-10-14T09:17:21.128Z,14.41
2022-10-14T09:19:58.856Z,14.41
2022-10-14T09:22:30.675Z,14.45
2022-10-14T09:25:02.371Z,14.64
2022-10-14T09:27:34.294Z,14.76
2022-10-14T09:30:10.834Z,14.88
2022-10-14T09:32:45.941Z,14.93
2022-10-14T09:35:25.412Z,14.84
2022-10-14T09:37:57.629Z,14.94
2022-10-14T09:40:33.634Z,14.99
2022-10-14T09:43:14.011Z,15.10
2022-10-14T09:45:56.829Z,15.22
2022-10-14T09:48:37.577Z,15.49
2022-10-14T09:51:12.264Z,15.72
2022-10-14T09:53:49.125Z,15.94
2022-10-14T09:56:31.778Z,16.07
2022-10-14T09:59:05.269Z,16.16
2022-10-14T10:01:41.723Z,16.11
2022-10-14T10:04:28.806Z,16.09
2022-10-14T10:07:02.560Z,16.24
2022-10-14T10:09:35.056Z,16.43
2022-10-14T10:12:25.491Z,16.34
2022-10-14T10:15:03.624Z,16.30
2022-10-14T10:17:40.573Z,16.27
2022-10-14T10:20:28.549Z,16.24
2022-10-14T10:23:21.293Z,16.14
2022-10-14T10:25:53.275Z,16.13
2022-10-14T10:28:32.139Z,16.08
2022-10-14T10:31:19.155Z,15.96
2022-10-14T10:33:58.005Z,16.05
2022-10-14T10:36:35.725Z,16.18
2022-10-14T10:39:17.918Z,16.19
2022-10-14T10:42:04.116Z,16.16
2022-10-14T10:44:53.143Z,16.21
2022-10-14T10:47:37.872Z,16.29
2022-10-14T10:50:37.261Z,16.33
2022-10-14T10:53:23.992Z,16.38
2022-10-14T10:56:07.868Z,16.43
2022-10-14T10:58:54.911Z,16.41
2022-10-14T11:01:38.450Z,16.27
2022-10-14T11:04:23.167Z,16.41
2022-10-14T11:07:22.767Z,16.42
2022-10-14T11:10:26.102Z,16.52
2022-10-14T11:13:02.629Z,16.54
2022-10-14T11:15:43.110Z,16.47
2022-10-14T11:18:25.307Z,16.54
2022-10-14T11:21:10.836Z,16.61
2022-10-14T11:23:59.386Z,16.70
2022-10-14T11:26:56.232Z,16.79
2022-10-14T11:29:56.299Z,16.96
2022-10-14T11:32:36.143Z,16.95
2022-10-14T11:35:26.213Z,16.98
2022-10-14T11:38:15.785Z,17.03
2022-10-14T11:40:56.519Z,16.98
2022-10-14T11:43:42.184Z,17.05
2022-10-14T11:46:17.364Z,17.10
2022-10-14T11:48:52.328Z,17.13
2022-10-14T11:51:33.280Z,17.07
2022-10-14T11:54:14.999Z,17.07
2022-10-14T11:56:51.657Z,17.08
2022-10-14T11:59:34.803Z,17.07
2022-10-14T12:02:20.755Z,17.10
2022-10-14T12:04:59.033Z,17.08
2022-10-14T12:07:35.935Z,17.15
2022-10-14T12:10:20.880Z,17.20
2022-10-14T12:12:53.981Z,17.23
2022-10-14T12:15:28.169Z,17.22
2022-10-14T12:18:02.051Z,17.21
2022-10-14T12:20:44.865Z,17.20
2022-10-14T12:23:28.204Z,17.21
2022-10-14T12:26:05.550Z,17.25
2022-10-14T12:28:41.011Z,17.28
2022-10-14T12:31:38.535Z,17.22
2022-10-14T12:34:31.203Z,17.15
2022-10-14T12:37:27.283Z,17.15
2022-10-14T12:40:23.364Z,17.16
2022-10-14T12:43:13.478Z,17.21
2022-10-14T12:45:58.686Z,17.24
2022-10-14T12:48:34.717Z,17.27
2022-10-14T12:51:16.905Z,17.20
2022-10-14T12:53:58.433Z,17.23
2022-10-14T12:56:45.528Z,17.30
2022-10-14T12:59:28.097Z,17.28
2022-10-14T13:02:05.142Z,17.32
2022-10-14T13:04:37.008Z,17.40
2022-10-14T13:07:41.045Z,17.29
2022-10-14T13:10:50.449Z,17.23
2022-10-14T13:13:56.195Z,17.32
2022-10-14T13:17:09.901Z,17.35
2022-10-14T13:19:47.622Z,17.37
2022-10-14T13:22:39.308Z,17.42
2022-10-14T13:25:20.625Z,17.44
2022-10-14T13:28:13.330Z,17.45
2022-10-14T13:30:57.306Z,17.30
2022-10-14T13:33:37.804Z,17.19
2022-10-14T13:36:17.628Z,17.34
2022-10-14T13:38:56.676Z,17.37
2022-10-14T13:41:31.368Z,17.30
2022-10-14T13:44:03.754Z,17.36
2022-10-14T13:46:40.480Z,17.37
2022-10-14T13:49:18.608Z,17.37
2022-10-14T13:51:53.695Z,17.32
2022-10-14T13:54:26.873Z,17.36
2022-10-14T13:57:47.956Z,17.34
2022-10-14T14:00:39.612Z,17.31
2022-10-14T14:02:55.130Z,17.33
2022-10-14T14:05:36.076Z,17.32
2022-10-14T14:11:18.914Z,17.36
2022-10-14T14:14:00.841Z,17.40
2022-10-14T14:16:36.925Z,17.37
2022-10-14T14:19:18.554Z,17.34
2022-10-14T14:21:50.607Z,17.32
2022-10-14T14:24:29.413Z,17.38
2022-10-14T14:27:02.514Z,17.35
2022-10-14T14:29:35.992Z,17.43
2022-10-14T14:32:14.500Z,17.25
2022-10-14T14:34:49.159Z,17.28
2022-10-14T14:37:48.105Z,17.22
2022-10-14T14:40:22.343Z,17.27
2022-10-14T14:42:57.150Z,17.23
2022-10-14T14:45:32.355Z,17.09
2022-10-14T14:48:07.943Z,17.06
2022-10-14T14:50:43.184Z,17.05
2022-10-14T14:53:18.699Z,17.00
2022-10-14T14:56:03.524Z,16.93
2022-10-14T14:58:40.305Z,16.90
2022-10-14T15:01:23.203Z,16.82
2022-10-14T15:04:12.813Z,16.85
2022-10-14T15:06:57.500Z,16.87
2022-10-14T15:09:38.480Z,16.86
2022-10-14T15:12:17.432Z,16.79
2022-10-14T15:14:51.203Z,16.80
2022-10-14T15:17:34.989Z,16.78
2022-10-14T15:20:30.396Z,16.77
2022-10-14T15:23:03.504Z,16.70
2022-10-14T15:25:35.248Z,16.62
2022-10-14T15:28:27.289Z,16.55
2022-10-14T15:31:03.101Z,16.52
2022-10-14T15:33:37.459Z,16.49
2022-10-14T15:36:13.429Z,16.48
2022-10-14T15:38:45.534Z,16.49
2022-10-14T15:41:17.102Z,16.45
2022-10-14T15:43:49.368Z,16.43
2022-10-14T15:46:35.299Z,16.43
2022-10-14T15:49:15.068Z,16.42
2022-10-14T15:51:46.596Z,16.37
2022-10-14T15:54:19.438Z,16.33
2022-10-14T15:56:51.301Z,16.37
2022-10-14T15:59:23.384Z,16.36
2022-10-14T16:01:56.005Z,16.35
2022-10-14T16:04:28.024Z,16.33
2022-10-14T16:07:00.124Z,16.31
2022-10-14T16:09:32.026Z,16.31
2022-10-14T16:12:05.158Z,16.29
2022-10-14T16:14:36.871Z,16.27
2022-10-14T16:17:09.831Z,16.27
2022-10-14T16:19:44.069Z,16.25
2022-10-14T16:22:17.612Z,16.23
2022-10-14T16:24:49.289Z,16.18
2022-10-14T16:27:21.989Z,16.19
2022-10-14T16:29:53.894Z,16.17
2022-10-14T16:32:26.934Z,16.16
2022-10-14T16:35:00.993Z,16.18
2022-10-14T16:37:32.637Z,16.18
2022-10-14T16:40:04.794Z,16.17
2022-10-14T16:42:36.488Z,16.13
2022-10-14T16:45:09.417Z,16.13
2022-10-14T16:47:41.816Z,16.13
2022-10-14T16:50:14.507Z,16.05
2022-10-14T16:53:06.158Z,16.04
2022-10-14T16:55:39.287Z,16.02
2022-10-14T16:58:10.887Z,15.98
2022-10-14T17:00:43.857Z,15.90
2022-10-14T17:03:16.220Z,15.87
2022-10-14T17:05:56.985Z,15.93
2022-10-14T17:08:29.307Z,15.93
2022-10-14T17:11:01.548Z,15.91
2022-10-14T17:13:33.319Z,15.90
2022-10-14T17:16:06.897Z,15.87
2022-10-14T17:18:39.095Z,15.86
2022-10-14T17:21:13.662Z,15.87
2022-10-14T17:23:46.749Z,15.87
2022-10-14T17:26:20.232Z,15.81
2022-10-14T17:28:51.980Z,15.82
2022-10-14T17:31:24.509Z,15.78
2022-10-14T17:33:56.222Z,15.79
2022-10-14T17:36:30.808Z,15.70
2022-10-14T17:39:02.542Z,15.65
2022-10-14T17:41:34.709Z,15.58
2022-10-14T17:44:06.438Z,15.56
2022-10-14T17:46:38.227Z,15.46
2022-10-14T17:49:10.802Z,15.41
2022-10-14T17:51:43.181Z,15.39
2022-10-14T17:54:15.142Z,15.35
2022-10-14T17:56:49.272Z,15.22
2022-10-14T17:59:21.078Z,15.17
2022-10-14T18:02:08.084Z,15.14
2022-10-14T18:04:39.672Z,15.09
2022-10-14T18:07:12.033Z,15.03
2022-10-14T18:09:44.516Z,14.98
2022-10-14T18:12:16.493Z,14.93
2022-10-14T18:14:49.747Z,14.81
2022-10-14T18:17:22.118Z,14.87
2022-10-14T18:19:54.015Z,14.92
2022-10-14T18:22:25.797Z,14.91
2022-10-14T18:24:57.390Z,15.01
2022-10-14T18:27:29.438Z,15.14
2022-10-14T18:30:01.019Z,15.22
2022-10-14T18:32:32.714Z,15.24
2022-10-14T18:35:05.325Z,15.26
2022-10-14T18:37:35.715Z,15.27
2022-10-14T18:40:09.299Z,15.26
2022-10-14T18:42:41.677Z,15.26
2022-10-14T18:45:13.845Z,15.22
2022-10-14T18:47:47.234Z,15.08
2022-10-14T18:50:18.885Z,15.13
2022-10-14T18:52:51.364Z,15.15
2022-10-14T18:55:23.308Z,15.19
2022-10-14T18:57:55.282Z,15.03
2022-10-14T19:00:27.176Z,15.06
2022-10-14T19:02:59.705Z,14.95
2022-10-14T19:05:35.894Z,14.92
2022-10-14T19:08:07.737Z,14.94
2022-10-14T19:10:40.205Z,14.97
2022-10-14T19:13:12.243Z,14.95
2022-10-14T19:15:46.874Z,14.90
2022-10-14T19:18:22.412Z,14.91
2022-10-14T19:20:57.925Z,14.87
2022-10-14T19:23:29.720Z,14.88
2022-10-14T19:26:04.787Z,14.85
2022-10-14T19:28:36.957Z,14.89
2022-10-14T19:31:10.284Z,14.84
2022-10-14T19:33:44.128Z,14.85
2022-10-14T19:36:19.361Z,14.86
2022-10-14T19:38:58.019Z,14.77
2022-10-14T19:41:32.747Z,14.75
2022-10-14T19:44:04.820Z,14.73
2022-10-14T19:46:36.445Z,14.68
2022-10-14T19:49:08.708Z,14.74
2022-10-14T19:51:41.410Z,14.80
2022-10-14T19:54:12.596Z,14.72
2022-10-14T19:56:47.665Z,14.64
2022-10-14T19:59:19.426Z,14.63
2022-10-14T20:01:51.897Z,14.57
2022-10-14T20:04:26.655Z,14.61
2022-10-14T20:06:59.982Z,14.67
2022-10-14T20:09:31.756Z,14.69
2022-10-14T20:12:05.052Z,14.68
2022-10-14T20:14:37.167Z,14.62
2022-10-14T20:17:09.323Z,14.57
2022-10-14T20:19:41.228Z,14.45
2022-10-14T20:22:13.409Z,14.42
2022-10-14T20:24:45.389Z,14.50
2022-10-14T20:27:18.097Z,14.48
2022-10-14T20:29:48.776Z,14.47
2022-10-14T20:32:20.469Z,14.45
2022-10-14T20:34:53.097Z,14.43
2022-10-14T20:37:27.402Z,14.37
2022-10-14T20:40:00.475Z,14.44
2022-10-14T20:42:33.793Z,14.42
2022-10-14T20:45:07.026Z,14.43
2022-10-14T20:47:38.984Z,14.48
2022-10-14T20:50:12.292Z,14.45
2022-10-14T20:52:44.577Z,14.45
2022-10-14T20:55:16.644Z,14.49
2022-10-14T20:57:48.957Z,14.50
2022-10-14T21:00:22.430Z,14.46
2022-10-14T21:02:54.114Z,14.43
2022-10-14T21:05:25.918Z,14.46
2022-10-14T21:07:57.902Z,14.48
2022-10-14T21:10:30.391Z,14.42
2022-10-14T21:13:02.421Z,14.40
2022-10-14T21:15:34.266Z,14.33
2022-10-14T21:18:07.036Z,14.35
2022-10-14T21:20:37.110Z,14.33
2022-10-14T21:23:08.768Z,14.25
2022-10-14T21:25:40.509Z,14.26
2022-10-14T21:28:12.309Z,14.27
2022-10-14T21:30:44.253Z,14.21
2022-10-14T21:33:15.870Z,14.16
2022-10-14T21:35:47.807Z,13.95
2022-10-14T21:38:19.714Z,13.82
2022-10-14T21:40:51.656Z,13.90
2022-10-14T21:43:23.197Z,13.85
2022-10-14T21:45:54.780Z,13.84
2022-10-14T21:48:26.372Z,13.84
2022-10-14T21:51:05.206Z,13.83
2022-10-14T21:53:37.547Z,13.85
2022-10-14T21:56:10.009Z,13.97
2022-10-14T21:58:42.420Z,13.98
2022-10-14T22:01:16.945Z,13.86
2022-10-14T22:03:48.976Z,13.93
2022-10-14T22:06:20.948Z,14.03
2022-10-14T22:08:55.645Z,14.01
2022-10-14T22:11:29.313Z,13.85
2022-10-14T22:14:02.740Z,13.77
2022-10-14T22:16:34.669Z,13.78
2022-10-14T22:19:07.897Z,13.86
2022-10-14T22:21:40.959Z,13.95
2022-10-14T22:24:12.810Z,13.98
2022-10-14T22:26:45.008Z,13.93
2022-10-14T22:29:18.352Z,13.88
2022-10-14T22:31:50.356Z,13.91
2022-10-14T22:34:22.056Z,13.88
2022-10-14T22:36:54.085Z,13.67
2022-10-14T22:39:27.056Z,13.64
2022-10-14T22:41:58.806Z,13.63
2022-10-14T22:44:30.586Z,13.56
2022-10-14T22:47:02.960Z,13.59
2022-10-14T22:49:34.512Z,13.62
2022-10-14T22:52:06.438Z,13.63
2022-10-14T22:54:38.475Z,13.63
2022-10-14T22:57:10.120Z,13.60
2022-10-14T22:59:42.103Z,13.55
2022-10-14T23:02:13.693Z,13.44
2022-10-14T23:04:45.790Z,13.41
2022-10-14T23:07:17.699Z,13.32
2022-10-14T23:09:49.325Z,13.20
2022-10-14T23:12:21.620Z,13.17
2022-10-14T23:14:53.793Z,13.08
2022-10-14T23:17:25.440Z,13.04
2022-10-14T23:19:57.344Z,13.06
2022-10-14T23:22:34.072Z,12.97
2022-10-14T23:25:07.001Z,12.92
2022-10-14T23:27:38.595Z,12.82
2022-10-14T23:30:11.669Z,12.82
2022-10-14T23:32:43.217Z,12.85
2022-10-14T23:35:14.916Z,12.89
2022-10-14T23:37:46.496Z,12.84
2022-10-14T23:40:18.630Z,12.83
2022-10-14T23:42:51.138Z,12.85
2022-10-14T23:45:22.770Z,12.87
2022-10-14T23:47:54.434Z,12.94
2022-10-14T23:50:26.432Z,12.98
2022-10-14T23:52:58.317Z,13.01
2022-10-14T23:55:30.569Z,12.96
2022-10-14T23:58:02.194Z,12.89
